createdAt,value
2023-04-02T00:01:26.763Z,98063.63
2023-04-02T00:04:16.275Z,98074.66
2023-04-02T00:06:46.659Z,98068.38
2023-04-02T00:09:13.758Z,98073.66
2023-04-02T00:11:49.012Z,98069.75
2023-04-02T00:14:28.140Z,98074.38
2023-04-02T00:16:59.026Z,98069.50
2023-04-02T00:19:51.837Z,98067.81
2023-04-02T00:22:31.609Z,98068.06
2023-04-02T00:25:11.292Z,98076.44
2023-04-02T00:27:40.232Z,98077.53
2023-04-02T00:30:09.014Z,98071.41
2023-04-02T00:32:37.425Z,98079.47
2023-04-02T00:35:17.635Z,98082.44
2023-04-02T00:37:45.044Z,98076.34
2023-04-02T00:40:30.958Z,98071.31
2023-04-02T00:43:04.391Z,98070.75
2023-04-02T00:45:50.674Z,98080.69
2023-04-02T00:48:32.761Z,98076.22
2023-04-02T00:51:24.591Z,98082.78
2023-04-02T00:53:56.442Z,98074.34
2023-04-02T00:56:41.163Z,98082.63
2023-04-02T00:59:36.733Z,98081.88
2023-04-02T01:02:17.730Z,98083.59
2023-04-02T01:05:07.700Z,98085.53
2023-04-02T01:08:16.750Z,98092.47
2023-04-02T01:11:17.975Z,98090.22
2023-04-02T01:14:09.272Z,98088.19
2023-04-02T01:17:18.502Z,98093.22
2023-04-02T01:20:07.536Z,98096.13
2023-04-02T01:23:19.860Z,98101.44
2023-04-02T01:26:11.087Z,98098.13
2023-04-02T01:29:19.927Z,98101.47
2023-04-02T01:31:50.393Z,98107.31
2023-04-02T01:34:25.084Z,98106.69
2023-04-02T01:37:22.314Z,98105.09
2023-04-02T01:40:58.821Z,98105.91
2023-04-02T01:44:00.210Z,98105.59
2023-04-02T01:46:36.043Z,98103.59
2023-04-02T01:49:15.097Z,98111.50
2023-04-02T01:51:51.637Z,98115.25
2023-04-02T01:54:22.193Z,98118.44
2023-04-02T01:56:51.115Z,98121.00
2023-04-02T01:59:22.584Z,98121.97
2023-04-02T02:02:04.392Z,98113.16
2023-04-02T02:04:35.104Z,98119.16
2023-04-02T02:07:04.232Z,98123.81
2023-04-02T02:09:35.926Z,98123.47
2023-04-02T02:12:05.271Z,98122.75
2023-04-02T02:14:33.399Z,98125.13
2023-04-02T02:17:04.331Z,98134.78
2023-04-02T02:19:55.106Z,98133.19
2023-04-02T02:22:34.200Z,98138.63
2023-04-02T02:25:14.640Z,98134.78
2023-04-02T02:28:00.425Z,98139.22
2023-04-02T02:30:36.405Z,98145.63
2023-04-02T02:33:32.193Z,98149.28
2023-04-02T02:36:50.781Z,98145.97
2023-04-02T02:39:30.601Z,98147.94
2023-04-02T02:42:14.230Z,98150.69
2023-04-02T02:44:48.147Z,98152.06
2023-04-02T02:47:39.651Z,98149.22
2023-04-02T02:50:23.608Z,98160.69
2023-04-02T02:52:58.082Z,98157.56
2023-04-02T02:55:36.978Z,98154.81
2023-04-02T02:58:27.558Z,98156.78
2023-04-02T03:01:06.052Z,98156.47
2023-04-02T03:03:35.817Z,98160.44
2023-04-02T03:06:10.840Z,98161.59
2023-04-02T03:09:05.079Z,98172.41
2023-04-02T03:12:04.515Z,98173.88
2023-04-02T03:15:12.344Z,98176.16
2023-04-02T03:17:55.798Z,98171.75
2023-04-02T03:20:53.574Z,98180.78
2023-04-02T03:23:37.419Z,98181.66
2023-04-02T03:26:34.279Z,98187.34
2023-04-02T03:29:26.497Z,98188.16
2023-04-02T03:32:06.100Z,98184.47
2023-04-02T03:34:57.459Z,98194.09
2023-04-02T03:37:43.632Z,98196.88
2023-04-02T03:40:31.512Z,98195.50
2023-04-02T03:43:12.336Z,98203.78
2023-04-02T03:45:55.186Z,98200.28
2023-04-02T03:48:44.231Z,98211.69
2023-04-02T03:51:45.754Z,98209.38
2023-04-02T03:54:16.845Z,98213.41
2023-04-02T03:56:47.573Z,98212.66
2023-04-02T04:00:08.465Z,98216.66
2023-04-02T04:02:54.170Z,98217.31
2023-04-02T04:05:54.175Z,98217.94
2023-04-02T04:08:32.880Z,98220.84
2023-04-02T04:11:15.746Z,98227.91
2023-04-02T04:13:57.385Z,98226.19
2023-04-02T04:17:04.910Z,98223.38
2023-04-02T04:19:51.900Z,98231.31
2023-04-02T04:22:34.093Z,98234.78
2023-04-02T04:25:34.592Z,98235.31
2023-04-02T04:28:58.456Z,98240.75
2023-04-02T04:31:55.155Z,98241.91
2023-04-02T04:34:53.597Z,98249.03
2023-04-02T04:37:38.499Z,98250.56
2023-04-02T04:40:23.890Z,98257.09
2023-04-02T04:43:11.383Z,98253.13
2023-04-02T04:45:56.594Z,98259.00
2023-04-02T04:49:29.552Z,98268.13
2023-04-02T04:52:24.354Z,98271.94
2023-04-02T04:54:52.853Z,98266.63
2023-04-02T04:57:37.401Z,98270.06
2023-04-02T05:00:37.514Z,98273.22
2023-04-02T05:03:46.301Z,98282.56
2023-04-02T05:06:56.045Z,98277.78
2023-04-02T05:09:36.198Z,98284.81
2023-04-02T05:12:10.780Z,98281.16
2023-04-02T05:15:21.306Z,98292.63
2023-04-02T05:17:57.374Z,98294.28
2023-04-02T05:21:00.930Z,98293.78
2023-04-02T05:23:40.629Z,98303.78
2023-04-02T05:26:36.675Z,98295.22
2023-04-02T05:29:24.508Z,98300.81
2023-04-02T05:32:15.966Z,98302.25
2023-04-02T05:34:53.548Z,98298.06
2023-04-02T05:37:28.691Z,98314.75
2023-04-02T05:40:13.568Z,98318.06
2023-04-02T05:42:49.803Z,98322.31
2023-04-02T05:45:36.293Z,98319.78
2023-04-02T05:48:21.614Z,98325.94
2023-04-02T05:50:58.693Z,98336.16
2023-04-02T05:53:40.508Z,98330.44
2023-04-02T05:56:44.018Z,98343.16
2023-04-02T05:59:24.551Z,98341.81
2023-04-02T06:02:22.813Z,98341.56
2023-04-02T06:05:12.885Z,98346.63
2023-04-02T06:07:59.416Z,98356.63
2023-04-02T06:10:45.595Z,98350.66
2023-04-02T06:13:19.218Z,98360.22
2023-04-02T06:15:48.004Z,98359.13
2023-04-02T06:18:28.425Z,98362.78
2023-04-02T06:20:57.986Z,98373.16
2023-04-02T06:23:53.466Z,98370.56
2023-04-02T06:26:34.217Z,98374.75
2023-04-02T06:29:30.926Z,98377.81
2023-04-02T06:32:02.389Z,98374.22
2023-04-02T06:34:32.756Z,98382.66
2023-04-02T06:37:34.958Z,98389.03
2023-04-02T06:40:39.655Z,98387.63
2023-04-02T06:43:39.041Z,98393.81
2023-04-02T06:46:52.904Z,98401.25
2023-04-02T06:49:55.268Z,98401.03
2023-04-02T06:52:39.523Z,98406.75
2023-04-02T06:55:41.113Z,98419.13
2023-04-02T06:58:11.184Z,98426.47
2023-04-02T07:00:46.413Z,98427.59
2023-04-02T07:03:32.151Z,98429.56
2023-04-02T07:06:06.172Z,98431.50
2023-04-02T07:08:34.816Z,98430.16
2023-04-02T07:11:02.349Z,98441.06
2023-04-02T07:13:29.778Z,98441.06
2023-04-02T07:15:57.612Z,98439.94
2023-04-02T07:18:31.592Z,98448.56
2023-04-02T07:21:01.378Z,98449.97
2023-04-02T07:23:29.305Z,98456.69
2023-04-02T07:25:57.696Z,98462.81
2023-04-02T07:28:25.940Z,98463.28
2023-04-02T07:30:55.012Z,98463.88
2023-04-02T07:33:28.095Z,98456.09
2023-04-02T07:35:58.344Z,98476.22
2023-04-02T07:38:25.880Z,98472.59
2023-04-02T07:40:53.479Z,98481.75
2023-04-02T07:43:21.860Z,98481.50
2023-04-02T07:45:51.529Z,98481.69
2023-04-02T07:48:18.943Z,98487.25
2023-04-02T07:50:46.079Z,98491.16
2023-04-02T07:53:35.882Z,98492.66
2023-04-02T07:56:05.195Z,98492.31
2023-04-02T07:58:34.344Z,98498.47
2023-04-02T08:01:03.751Z,98500.13
2023-04-02T08:03:31.340Z,98510.72
2023-04-02T08:05:59.030Z,98513.19
2023-04-02T08:08:26.681Z,98521.81
2023-04-02T08:10:55.532Z,98513.41
2023-04-02T08:13:22.902Z,98524.00
2023-04-02T08:15:50.230Z,98517.38
2023-04-02T08:18:17.746Z,98525.09
2023-04-02T08:20:44.966Z,98526.88
2023-04-02T08:23:17.900Z,98534.47
2023-04-02T08:25:46.210Z,98530.09
2023-04-02T08:28:13.919Z,98537.84
2023-04-02T08:30:41.883Z,98536.34
2023-04-02T08:33:09.495Z,98540.25
2023-04-02T08:35:37.272Z,98549.56
2023-04-02T08:38:04.639Z,98550.69
2023-04-02T08:40:39.450Z,98551.41
2023-04-02T08:43:53.483Z,98560.47
2023-04-02T08:46:36.014Z,98557.03
2023-04-02T08:49:16.633Z,98553.94
2023-04-02T08:51:46.473Z,98569.63
2023-04-02T08:54:39.241Z,98562.69
2023-04-02T08:57:39.855Z,98567.59
2023-04-02T09:00:37.943Z,98573.47
2023-04-02T09:03:39.199Z,98575.69
2023-04-02T09:06:16.836Z,98582.06
2023-04-02T09:08:49.230Z,98580.25
2023-04-02T09:11:53.820Z,98586.50
2023-04-02T09:15:08.789Z,98589.78
2023-04-02T09:17:50.524Z,98596.59
2023-04-02T09:20:28.456Z,98589.84
2023-04-02T09:22:57.274Z,98599.31
2023-04-02T09:25:31.326Z,98592.78
2023-04-02T09:28:05.776Z,98605.28
2023-04-02T09:30:33.019Z,98606.28
2023-04-02T09:33:07.799Z,98602.78
2023-04-02T09:35:55.683Z,98612.91
2023-04-02T09:38:32.798Z,98619.72
2023-04-02T09:41:21.482Z,98627.47
2023-04-02T09:43:48.656Z,98630.00
2023-04-02T09:46:25.893Z,98635.69
2023-04-02T09:49:00.988Z,98638.34
2023-04-02T09:51:36.640Z,98637.66
2023-04-02T09:54:03.842Z,98645.69
2023-04-02T09:56:40.870Z,98643.03
2023-04-02T09:59:22.085Z,98641.16
2023-04-02T10:01:55.740Z,98645.84
2023-04-02T10:04:48.142Z,98649.88
2023-04-02T10:08:06.597Z,98646.63
2023-04-02T10:10:44.869Z,98649.34
2023-04-02T10:13:35.815Z,98654.47
2023-04-02T10:16:23.337Z,98653.94
2023-04-02T10:18:59.386Z,98663.41
2023-04-02T10:21:37.663Z,98659.97
2023-04-02T10:24:15.557Z,98659.78
2023-04-02T10:27:11.858Z,98663.31
2023-04-02T10:30:48.909Z,98668.50
2023-04-02T10:33:31.350Z,98665.75
2023-04-02T10:36:29.112Z,98672.28
2023-04-02T10:39:12.000Z,98673.38
2023-04-02T10:42:26.494Z,98671.06
2023-04-02T10:45:02.565Z,98682.25
2023-04-02T10:47:55.000Z,98682.78
2023-04-02T10:50:50.077Z,98679.31
2023-04-02T10:53:34.387Z,98684.00
2023-04-02T10:56:08.850Z,98688.38
2023-04-02T10:58:55.597Z,98693.28
2023-04-02T11:01:31.404Z,98695.31
2023-04-02T11:04:45.109Z,98696.63
2023-04-02T11:07:24.797Z,98706.13
2023-04-02T11:09:58.159Z,98709.28
2023-04-02T11:13:28.647Z,98711.81
2023-04-02T11:15:55.977Z,98714.31
2023-04-02T11:18:36.659Z,98716.47
2023-04-02T11:21:44.866Z,98715.81
2023-04-02T11:24:32.708Z,98718.50
2023-04-02T11:27:12.234Z,98717.41
2023-04-02T11:30:00.696Z,98719.53
2023-04-02T11:32:36.378Z,98724.06
2023-04-02T11:35:32.716Z,98723.38
2023-04-02T11:38:10.035Z,98728.91
2023-04-02T11:40:54.908Z,98731.09
2023-04-02T11:43:34.362Z,98731.34
2023-04-02T11:46:16.906Z,98728.44
2023-04-02T11:48:44.901Z,98744.00
2023-04-02T11:51:22.442Z,98741.34
2023-04-02T11:53:53.777Z,98739.84
2023-04-02T11:56:48.858Z,98746.47
2023-04-02T11:59:49.021Z,98741.72
2023-04-02T12:03:30.077Z,98749.72
2023-04-02T12:06:26.202Z,98742.22
2023-04-02T12:09:22.597Z,98747.78
2023-04-02T12:11:57.948Z,98753.53
2023-04-02T12:14:47.436Z,98749.13
2023-04-02T12:17:33.172Z,98750.72
2023-04-02T12:20:27.272Z,98761.91
2023-04-02T12:22:56.485Z,98765.84
2023-04-02T12:25:40.728Z,98761.75
2023-04-02T12:28:18.958Z,98763.28
2023-04-02T12:30:49.349Z,98770.13
2023-04-02T12:33:22.742Z,98769.97
2023-04-02T12:35:59.826Z,98770.25
2023-04-02T12:38:50.593Z,98766.25
2023-04-02T12:41:31.955Z,98775.16
2023-04-02T12:44:06.471Z,98776.94
2023-04-02T12:46:36.381Z,98776.59
2023-04-02T12:49:08.706Z,98777.41
2023-04-02T12:51:37.864Z,98781.25
2023-04-02T12:54:05.743Z,98784.56
2023-04-02T12:56:33.145Z,98789.28
2023-04-02T12:59:01.538Z,98783.63
2023-04-02T13:01:32.023Z,98784.97
2023-04-02T13:04:12.397Z,98786.50
2023-04-02T13:06:48.802Z,98781.44
2023-04-02T13:09:42.191Z,98788.72
2023-04-02T13:12:41.517Z,98789.53
2023-04-02T13:15:28.406Z,98795.28
2023-04-02T13:18:21.703Z,98792.78
2023-04-02T13:20:58.670Z,98790.88
2023-04-02T13:23:32.324Z,98789.09
2023-04-02T13:26:19.320Z,98795.16
2023-04-02T13:29:04.543Z,98798.88
2023-04-02T13:31:33.395Z,98801.84
2023-04-02T13:34:02.198Z,98790.19
2023-04-02T13:36:29.711Z,98805.22
2023-04-02T13:38:57.666Z,98799.75
2023-04-02T13:41:30.761Z,98805.59
2023-04-02T13:44:02.461Z,98807.50
2023-04-02T13:46:34.690Z,98806.66
2023-04-02T13:49:02.344Z,98805.56
2023-04-02T13:51:44.676Z,98815.16
2023-04-02T13:54:26.379Z,98824.34
2023-04-02T13:56:56.868Z,98821.75
2023-04-02T13:59:27.098Z,98826.78
2023-04-02T14:02:05.743Z,98828.19
2023-04-02T14:04:43.113Z,98834.09
2023-04-02T14:07:52.841Z,98833.81
2023-04-02T14:11:12.826Z,98833.56
2023-04-02T14:14:56.213Z,98838.34
2023-04-02T14:18:10.536Z,98844.91
2023-04-02T14:21:14.855Z,98850.69
2023-04-02T14:24:08.862Z,98857.63
2023-04-02T14:28:02.954Z,98860.97
2023-04-02T14:31:01.031Z,98866.16
2023-04-02T14:34:05.048Z,98867.25
2023-04-02T14:37:04.241Z,98872.25
2023-04-02T14:40:53.935Z,98868.06
2023-04-02T14:43:33.579Z,98881.16
2023-04-02T14:46:06.662Z,98877.16
2023-04-02T14:48:58.468Z,98875.88
2023-04-02T14:51:59.018Z,98883.97
2023-04-02T14:55:04.275Z,98880.00
2023-04-02T14:57:41.348Z,98883.03
2023-04-02T15:00:38.970Z,98885.91
2023-04-02T15:03:27.814Z,98888.81
2023-04-02T15:06:17.042Z,98887.06
2023-04-02T15:09:15.456Z,98889.72
2023-04-02T15:11:57.229Z,98892.94
2023-04-02T15:14:35.633Z,98896.56
2023-04-02T15:17:02.882Z,98901.66
2023-04-02T15:19:30.508Z,98908.91
2023-04-02T15:22:40.370Z,98910.91
2023-04-02T15:25:29.800Z,98917.78
2023-04-02T15:28:29.972Z,98920.59
2023-04-02T15:31:07.299Z,98931.31
2023-04-02T15:34:20.271Z,98937.13
2023-04-02T15:37:27.862Z,98936.91
2023-04-02T15:40:16.101Z,98939.19
2023-04-02T15:43:32.289Z,98944.56
2023-04-02T15:46:22.629Z,98959.06
2023-04-02T15:49:33.980Z,98954.25
2023-04-02T15:52:26.654Z,98966.91
2023-04-02T15:55:24.541Z,98967.91
2023-04-02T15:59:01.367Z,98975.13
2023-04-02T16:01:40.773Z,98978.16
2023-04-02T16:04:26.242Z,98989.22
2023-04-02T16:07:43.095Z,98983.00
2023-04-02T16:10:41.721Z,98994.31
2023-04-02T16:13:38.184Z,98999.41
2023-04-02T16:16:40.076Z,98998.44
2023-04-02T16:19:33.754Z,98998.72
2023-04-02T16:22:33.251Z,99005.47
2023-04-02T16:25:24.421Z,99011.81
2023-04-02T16:28:33.744Z,99013.91
2023-04-02T16:31:17.161Z,99021.25
2023-04-02T16:34:02.390Z,99030.28
2023-04-02T16:36:56.964Z,99027.69
2023-04-02T16:39:52.837Z,99039.34
2023-04-02T16:42:47.841Z,99046.63
2023-04-02T16:45:33.452Z,99051.91
2023-04-02T16:48:46.033Z,99055.91
2023-04-02T16:51:38.194Z,99052.72
2023-04-02T16:55:01.105Z,99061.44
2023-04-02T16:57:44.759Z,99072.84
2023-04-02T17:00:38.439Z,99072.31
2023-04-02T17:04:16.592Z,99074.81
2023-04-02T17:06:55.904Z,99088.28
2023-04-02T17:09:43.881Z,99087.69
2023-04-02T17:12:23.110Z,99092.88
2023-04-02T17:15:28.611Z,99095.25
2023-04-02T17:18:02.297Z,99101.88
2023-04-02T17:20:29.984Z,99104.88
2023-04-02T17:22:58.008Z,99112.72
2023-04-02T17:25:34.380Z,99118.16
2023-04-02T17:28:03.062Z,99126.31
2023-04-02T17:30:44.415Z,99136.63
2023-04-02T17:33:16.041Z,99145.22
2023-04-02T17:36:01.041Z,99148.00
2023-04-02T17:39:32.467Z,99149.03
2023-04-02T17:42:14.216Z,99168.34
2023-04-02T17:44:59.022Z,99167.19
2023-04-02T17:47:49.275Z,99168.75
2023-04-02T17:50:53.155Z,99167.91
2023-04-02T17:53:38.623Z,99179.25
2023-04-02T17:56:55.448Z,99186.16
2023-04-02T17:59:31.727Z,99199.00
2023-04-02T18:02:24.402Z,99204.31
2023-04-02T18:05:27.069Z,99214.81
2023-04-02T18:08:27.993Z,99216.81
2023-04-02T18:11:10.012Z,99223.88
2023-04-02T18:13:48.549Z,99213.53
2023-04-02T18:16:48.664Z,99228.56
2023-04-02T18:19:32.665Z,99220.81
2023-04-02T18:22:10.747Z,99234.88
2023-04-02T18:25:34.105Z,99254.63
2023-04-02T18:28:29.000Z,99253.56
2023-04-02T18:31:01.955Z,99269.44
2023-04-02T18:34:13.298Z,99270.16
2023-04-02T18:37:21.646Z,99278.66
2023-04-02T18:40:38.806Z,99294.19
2023-04-02T18:44:02.647Z,99290.09
2023-04-02T18:46:40.150Z,99298.53
2023-04-02T18:49:39.095Z,99313.13
2023-04-02T18:52:17.771Z,99317.50
2023-04-02T18:55:16.017Z,99325.94
2023-04-02T18:57:46.948Z,99335.09
2023-04-02T19:00:30.103Z,99334.34
2023-04-02T19:03:24.032Z,99343.25
2023-04-02T19:06:03.352Z,99345.63
2023-04-02T19:08:43.948Z,99355.44
2023-04-02T19:11:28.732Z,99361.50
2023-04-02T19:14:02.341Z,99368.97
2023-04-02T19:17:11.094Z,99371.38
2023-04-02T19:20:16.591Z,99372.41
2023-04-02T19:23:17.738Z,99377.28
2023-04-02T19:26:21.596Z,99386.59
2023-04-02T19:29:45.812Z,99394.16
2023-04-02T19:33:12.675Z,99396.91
2023-04-02T19:36:10.805Z,99404.38
2023-04-02T19:39:21.800Z,99408.25
2023-04-02T19:42:07.258Z,99415.50
2023-04-02T19:44:42.966Z,99424.75
2023-04-02T19:47:11.499Z,99422.59
2023-04-02T19:49:39.447Z,99431.56
2023-04-02T19:52:06.895Z,99427.41
2023-04-02T19:54:35.344Z,99432.06
2023-04-02T19:57:09.668Z,99446.09
2023-04-02T19:59:37.346Z,99434.97
2023-04-02T20:02:07.141Z,99431.97
2023-04-02T20:04:34.480Z,99450.84
2023-04-02T20:07:02.319Z,99438.91
2023-04-02T20:09:29.827Z,99445.72
2023-04-02T20:11:57.080Z,99447.97
2023-04-02T20:14:24.256Z,99450.34
2023-04-02T20:16:52.049Z,99455.00
2023-04-02T20:19:19.682Z,99462.81
2023-04-02T20:21:47.024Z,99460.63
2023-04-02T20:24:14.184Z,99467.19
2023-04-02T20:26:41.446Z,99444.00
2023-04-02T20:29:08.705Z,99470.28
2023-04-02T20:31:36.420Z,99482.84
2023-04-02T20:34:05.480Z,99471.44
2023-04-02T20:36:33.260Z,99479.34
2023-04-02T20:39:00.476Z,99473.94
2023-04-02T20:41:27.988Z,99490.56
2023-04-02T20:43:55.423Z,99486.81
2023-04-02T20:46:22.880Z,99504.41
2023-04-02T20:48:50.251Z,99498.03
2023-04-02T20:51:17.837Z,99505.63
2023-04-02T20:53:46.153Z,99508.22
2023-04-02T20:56:17.488Z,99512.22
2023-04-02T20:58:45.211Z,99521.84
2023-04-02T21:01:22.817Z,99522.50
2023-04-02T21:04:00.597Z,99519.50
2023-04-02T21:06:32.574Z,99524.28
2023-04-02T21:09:04.844Z,99544.63
2023-04-02T21:11:33.625Z,99536.09
2023-04-02T21:14:01.019Z,99533.75
2023-04-02T21:16:31.982Z,99535.00
2023-04-02T21:19:07.879Z,99540.28
2023-04-02T21:21:38.688Z,99535.81
2023-04-02T21:24:09.585Z,99539.78
2023-04-02T21:26:40.838Z,99545.63
2023-04-02T21:29:08.154Z,99547.91
2023-04-02T21:31:39.389Z,99549.25
2023-04-02T21:34:09.715Z,99548.66
2023-04-02T21:36:44.486Z,99540.09
2023-04-02T21:39:19.651Z,99547.50
2023-04-02T21:41:51.293Z,99556.59
2023-04-02T21:44:22.345Z,99557.81
2023-04-02T21:46:51.818Z,99562.41
2023-04-02T21:49:22.844Z,99553.41
2023-04-02T21:51:53.749Z,99556.56
2023-04-02T21:54:21.346Z,99565.38
2023-04-02T21:56:49.291Z,99565.13
2023-04-02T21:59:17.943Z,99570.59
2023-04-02T22:01:50.464Z,99576.88
2023-04-02T22:04:23.316Z,99575.25
2023-04-02T22:06:52.337Z,99573.53
2023-04-02T22:09:26.216Z,99576.03
2023-04-02T22:12:02.723Z,99574.97
2023-04-02T22:14:30.673Z,99578.88
2023-04-02T22:17:01.158Z,99584.41
2023-04-02T22:19:28.514Z,99589.88
2023-04-02T22:21:56.667Z,99591.81
2023-04-02T22:24:25.057Z,99600.16
2023-04-02T22:26:52.824Z,99595.88
2023-04-02T22:29:20.014Z,99605.66
2023-04-02T22:31:47.550Z,99604.41
2023-04-02T22:34:15.656Z,99598.44
2023-04-02T22:36:42.941Z,99605.25
2023-04-02T22:39:12.376Z,99596.31
2023-04-02T22:41:40.420Z,99598.66
2023-04-02T22:44:07.842Z,99600.00
2023-04-02T22:46:35.163Z,99599.16
2023-04-02T22:49:03.157Z,99597.78
2023-04-02T22:51:30.658Z,99608.63
2023-04-02T22:53:57.936Z,99600.78
2023-04-02T22:56:32.153Z,99604.22
2023-04-02T22:59:00.710Z,99602.88
2023-04-02T23:01:34.026Z,99601.63
2023-04-02T23:04:01.622Z,99607.78
2023-04-02T23:06:29.595Z,99606.94
2023-04-02T23:08:57.353Z,99595.88
2023-04-02T23:11:27.982Z,99590.75
2023-04-02T23:13:58.016Z,99595.84
2023-04-02T23:16:28.594Z,99595.91
2023-04-02T23:18:57.068Z,99598.38
2023-04-02T23:21:25.567Z,99601.84
2023-04-02T23:23:54.498Z,99596.06
2023-04-02T23:26:32.983Z,99603.63
2023-04-02T23:29:01.925Z,99602.25
2023-04-02T23:31:29.936Z,99610.56
2023-04-02T23:33:58.017Z,99599.06
2023-04-02T23:36:33.118Z,99604.44
2023-04-02T23:39:12.378Z,99597.44
2023-04-02T23:41:42.646Z,99596.63
2023-04-02T23:44:10.383Z,99595.03
2023-04-02T23:46:37.896Z,99586.69
2023-04-02T23:49:05.269Z,99588.66
2023-04-02T23:51:32.727Z,99590.28
2023-04-02T23:54:00.523Z,99590.34
2023-04-02T23:56:27.705Z,99592.25
2023-04-02T23:58:55.265Z,99590.03
